Airfield :
LOGIN :

Register | Disclaimer

   EN    FR    IT 

 










Legend :    VFR   Marginal VFR   IFR   Intensive IFR   Very Intensive IFR
Visi :
Ceiling :
>= 8 km
>= 3000ft
5 to 8 km
1000 to 3000 ft
1500m to 5 km
500 to 1000 ft
800 to 1500m
200 to 500 ft
< 800m
< 200 ft
Symbols :   Thunderstorms  Fog  Heavy snow  Heavy precipitations  Wind > 20 kt
SIGMETs :     Misc.  Thunderstorms  Icing  Turbulence  Mountain Waves  Volcanic Ashes







- Airport Elevation : 326 ft
- IATA code : LCG
- Download approach charts


LECO - A Coruna

CURRENT METAR :
  • 221430Z VRB02KT 8000 FEW025 16/13 Q0997 NOSIG

EXPIRED METARs :
  • 221400Z 04004KT 360V070 8000 FEW025 15/13 Q0997 NOSIG
  • 221330Z 05007KT 8000 FEW015 SCT025 15/13 Q0997 NOSIG
  • 221300Z 02007KT 340V050 8000 FEW015 SCT020 16/12 Q0998 NOSIG
  • 221230Z 02007KT 330V070 8000 FEW012 SCT020 17/13 Q0998 NOSIG
  • 221200Z 02008KT 330V070 9999 FEW025 18/12 Q0999 NOSIG

TAF TAF LECO
Valid from the 22 at 15:00 until the 23 at 15:00 UTC


221400Z 2215/2315 20009KT 9999 FEW040 TX19/2215Z TN07/2306Z
TEMPO 2215/2218 02010KT
TEMPO 2215/2224 27010KT 3000 RA BKN014
PROB30
TEMPO 2215/2221 22015G25KT
PROB30
TEMPO 2300/2312 30010KT 3000 SHRA SCT020TCU
PROB40
TEMPO 2312/2315 30010KT 3000 SHRA SCT020TCU
PROB30
TEMPO 2309/2315 TS SCT020CB
No reported NOTAMs for that airfield.



MET'MAP, your aeronautical weather chart ! - Copyright ORBIFLY December 2007 - Disclaimer

ORBIFLY MET'MAP TEAM :

Programming & Development : Alexandra Zaïnal
Concept & Development : Baudouin d'Aumeries
Co-Development & Prog : Marc-Olivier Méhu
Technical & hardware support : Manuel Goepfert

Contact : metmap@orbifly.com




SOURCES & CREDITS :

   NOAA